sensor_id;sensor_type;location;lat;lon;timestamp;P1;durP1;ratioP1;P2;durP2;ratioP2
553;SDS011;59;48.778;9.156;2023-12-04T00:02:14;36.33;;;18.67;;
553;SDS011;59;48.778;9.156;2023-12-04T00:04:39;33.10;;;17.40;;
553;SDS011;59;48.778;9.156;2023-12-04T00:07:05;33.03;;;18.10;;
553;SDS011;59;48.778;9.156;2023-12-04T00:09:31;30.00;;;17.80;;
553;SDS011;59;48.778;9.156;2023-12-04T00:11:56;34.83;;;18.23;;
553;SDS011;59;48.778;9.156;2023-12-04T00:14:22;30.83;;;17.23;;
553;SDS011;59;48.778;9.156;2023-12-04T00:16:48;34.10;;;18.43;;
553;SDS011;59;48.778;9.156;2023-12-04T00:19:13;33.00;;;19.20;;
553;SDS011;59;48.778;9.156;2023-12-04T00:21:39;33.87;;;18.60;;
553;SDS011;59;48.778;9.156;2023-12-04T00:24:05;31.77;;;18.90;;
553;SDS011;59;48.778;9.156;2023-12-04T00:26:31;32.33;;;17.83;;
553;SDS011;59;48.778;9.156;2023-12-04T00:28:56;39.60;;;21.07;;
553;SDS011;59;48.778;9.156;2023-12-04T00:31:22;36.47;;;20.97;;
553;SDS011;59;48.778;9.156;2023-12-04T00:33:47;32.30;;;18.47;;
553;SDS011;59;48.778;9.156;2023-12-04T00:36:13;32.50;;;18.90;;
553;SDS011;59;48.778;9.156;2023-12-04T00:38:39;32.97;;;18.97;;
553;SDS011;59;48.778;9.156;2023-12-04T00:41:05;38.03;;;19.90;;
553;SDS011;59;48.778;9.156;2023-12-04T00:43:30;35.30;;;18.97;;
553;SDS011;59;48.778;9.156;2023-12-04T00:45:56;36.03;;;18.83;;
553;SDS011;59;48.778;9.156;2023-12-04T00:48:22;38.50;;;20.23;;
553;SDS011;59;48.778;9.156;2023-12-04T00:50:48;36.23;;;19.70;;
553;SDS011;59;48.778;9.156;2023-12-04T00:53:13;28.03;;;17.40;;
553;SDS011;59;48.778;9.156;2023-12-04T00:55:39;35.20;;;19.20;;
553;SDS011;59;48.778;9.156;2023-12-04T00:58:05;32.67;;;18.60;;
553;SDS011;59;48.778;9.156;2023-12-04T01:00:30;31.80;;;18.07;;
553;SDS011;59;48.778;9.156;2023-12-04T01:02:56;31.00;;;18.17;;
553;SDS011;59;48.778;9.156;2023-12-04T01:05:21;29.50;;;17.60;;
553;SDS011;59;48.778;9.156;2023-12-04T01:07:47;30.17;;;16.50;;
553;SDS011;59;48.778;9.156;2023-12-04T01:10:13;32.80;;;16.17;;
553;SDS011;59;48.778;9.156;2023-12-04T01:12:38;36.93;;;18.87;;
553;SDS011;59;48.778;9.156;2023-12-04T01:15:04;32.23;;;17.30;;
553;SDS011;59;48.778;9.156;2023-12-04T01:17:30;37.50;;;19.13;;
553;SDS011;59;48.778;9.156;2023-12-04T01:19:56;30.87;;;17.40;;
553;SDS011;59;48.778;9.156;2023-12-04T01:22:22;28.80;;;16.30;;
553;SDS011;59;48.778;9.156;2023-12-04T01:24:48;33.70;;;18.57;;
553;SDS011;59;48.778;9.156;2023-12-04T01:27:14;30.80;;;16.77;;
553;SDS011;59;48.778;9.156;2023-12-04T01:29:39;28.37;;;15.90;;
553;SDS011;59;48.778;9.156;2023-12-04T01:32:05;28.67;;;16.60;;
553;SDS011;59;48.778;9.156;2023-12-04T01:34:31;31.67;;;16.73;;
553;SDS011;59;48.778;9.156;2023-12-04T01:36:56;28.40;;;16.27;;
553;SDS011;59;48.778;9.156;2023-12-04T01:39:22;30.63;;;17.60;;
553;SDS011;59;48.778;9.156;2023-12-04T01:41:48;32.27;;;16.80;;
553;SDS011;59;48.778;9.156;2023-12-04T01:44:14;29.00;;;15.50;;
553;SDS011;59;48.778;9.156;2023-12-04T01:46:39;29.97;;;17.07;;
553;SDS011;59;48.778;9.156;2023-12-04T01:49:06;29.07;;;16.20;;
553;SDS011;59;48.778;9.156;2023-12-04T01:51:31;35.03;;;18.10;;
553;SDS011;59;48.778;9.156;2023-12-04T01:54:00;29.23;;;16.33;;
553;SDS011;59;48.778;9.156;2023-12-04T01:56:27;29.87;;;16.70;;
553;SDS011;59;48.778;9.156;2023-12-04T01:58:53;29.43;;;16.80;;
553;SDS011;59;48.778;9.156;2023-12-04T02:01:19;31.50;;;17.27;;
553;SDS011;59;48.778;9.156;2023-12-04T02:03:45;29.58;;;16.65;;
553;SDS011;59;48.778;9.156;2023-12-04T02:06:11;28.50;;;16.73;;
553;SDS011;59;48.778;9.156;2023-12-04T02:08:37;29.15;;;15.95;;
553;SDS011;59;48.778;9.156;2023-12-04T02:11:04;28.43;;;14.60;;
553;SDS011;59;48.778;9.156;2023-12-04T02:13:30;28.90;;;17.13;;
553;SDS011;59;48.778;9.156;2023-12-04T02:15:56;30.37;;;15.90;;
553;SDS011;59;48.778;9.156;2023-12-04T02:18:23;26.00;;;14.10;;
553;SDS011;59;48.778;9.156;2023-12-04T02:20:50;29.30;;;16.47;;
553;SDS011;59;48.778;9.156;2023-12-04T02:23:15;30.00;;;16.40;;
553;SDS011;59;48.778;9.156;2023-12-04T02:25:41;28.00;;;16.63;;
553;SDS011;59;48.778;9.156;2023-12-04T02:28:07;30.23;;;15.13;;
553;SDS011;59;48.778;9.156;2023-12-04T02:30:35;27.77;;;15.87;;
553;SDS011;59;48.778;9.156;2023-12-04T02:33:03;29.70;;;16.83;;
553;SDS011;59;48.778;9.156;2023-12-04T02:35:31;30.43;;;17.40;;
553;SDS011;59;48.778;9.156;2023-12-04T02:37:58;28.80;;;15.87;;
553;SDS011;59;48.778;9.156;2023-12-04T02:40:24;26.57;;;15.33;;
553;SDS011;59;48.778;9.156;2023-12-04T02:42:51;34.33;;;17.95;;
553;SDS011;59;48.778;9.156;2023-12-04T02:45:17;29.77;;;16.60;;
553;SDS011;59;48.778;9.156;2023-12-04T02:47:43;24.60;;;15.33;;
553;SDS011;59;48.778;9.156;2023-12-04T02:50:10;29.77;;;16.93;;
553;SDS011;59;48.778;9.156;2023-12-04T02:52:36;31.07;;;17.77;;
553;SDS011;59;48.778;9.156;2023-12-04T02:55:01;30.13;;;16.47;;
553;SDS011;59;48.778;9.156;2023-12-04T02:57:27;29.50;;;16.50;;
553;SDS011;59;48.778;9.156;2023-12-04T02:59:53;28.00;;;16.40;;
553;SDS011;59;48.778;9.156;2023-12-04T03:02:18;30.53;;;16.83;;
553;SDS011;59;48.778;9.156;2023-12-04T03:04:45;29.90;;;16.37;;
553;SDS011;59;48.778;9.156;2023-12-04T03:07:10;29.80;;;16.87;;
553;SDS011;59;48.778;9.156;2023-12-04T03:09:36;38.00;;;19.00;;
553;SDS011;59;48.778;9.156;2023-12-04T03:12:02;30.83;;;18.67;;
553;SDS011;59;48.778;9.156;2023-12-04T03:14:28;34.33;;;18.07;;
553;SDS011;59;48.778;9.156;2023-12-04T03:16:53;29.60;;;16.47;;
553;SDS011;59;48.778;9.156;2023-12-04T03:19:19;31.37;;;17.67;;
553;SDS011;59;48.778;9.156;2023-12-04T03:21:45;32.97;;;18.80;;
553;SDS011;59;48.778;9.156;2023-12-04T03:24:10;25.30;;;15.10;;
553;SDS011;59;48.778;9.156;2023-12-04T03:26:36;29.93;;;16.80;;
553;SDS011;59;48.778;9.156;2023-12-04T03:29:02;29.27;;;17.27;;
553;SDS011;59;48.778;9.156;2023-12-04T03:31:28;30.03;;;16.60;;
553;SDS011;59;48.778;9.156;2023-12-04T03:33:53;27.30;;;15.20;;
553;SDS011;59;48.778;9.156;2023-12-04T03:36:19;28.93;;;15.93;;
553;SDS011;59;48.778;9.156;2023-12-04T03:38:45;30.10;;;15.80;;
553;SDS011;59;48.778;9.156;2023-12-04T03:41:14;29.03;;;16.97;;
553;SDS011;59;48.778;9.156;2023-12-04T03:43:40;28.17;;;16.60;;
553;SDS011;59;48.778;9.156;2023-12-04T03:46:06;27.70;;;15.77;;
553;SDS011;59;48.778;9.156;2023-12-04T03:48:32;27.10;;;14.93;;
553;SDS011;59;48.778;9.156;2023-12-04T03:50:58;30.90;;;16.83;;
553;SDS011;59;48.778;9.156;2023-12-04T03:53:24;29.13;;;16.40;;
553;SDS011;59;48.778;9.156;2023-12-04T03:55:50;26.50;;;15.70;;
553;SDS011;59;48.778;9.156;2023-12-04T03:58:16;29.20;;;17.03;;
553;SDS011;59;48.778;9.156;2023-12-04T04:00:42;30.13;;;17.80;;
553;SDS011;59;48.778;9.156;2023-12-04T04:03:08;30.60;;;15.97;;
553;SDS011;59;48.778;9.156;2023-12-04T04:05:35;32.10;;;16.15;;
553;SDS011;59;48.778;9.156;2023-12-04T04:08:00;29.43;;;16.77;;
553;SDS011;59;48.778;9.156;2023-12-04T04:10:26;29.43;;;17.60;;
553;SDS011;59;48.778;9.156;2023-12-04T04:12:52;32.40;;;18.00;;
553;SDS011;59;48.778;9.156;2023-12-04T04:15:18;32.57;;;17.80;;
553;SDS011;59;48.778;9.156;2023-12-04T04:17:43;23.20;;;14.30;;
553;SDS011;59;48.778;9.156;2023-12-04T04:20:09;29.23;;;15.90;;
553;SDS011;59;48.778;9.156;2023-12-04T04:22:36;28.77;;;16.38;;
553;SDS011;59;48.778;9.156;2023-12-04T04:25:06;26.87;;;15.37;;
553;SDS011;59;48.778;9.156;2023-12-04T04:27:32;26.37;;;15.53;;
553;SDS011;59;48.778;9.156;2023-12-04T04:29:58;29.43;;;16.80;;
553;SDS011;59;48.778;9.156;2023-12-04T04:32:24;25.90;;;15.07;;
553;SDS011;59;48.778;9.156;2023-12-04T04:34:49;27.50;;;15.33;;
553;SDS011;59;48.778;9.156;2023-12-04T04:37:15;32.23;;;16.77;;
553;SDS011;59;48.778;9.156;2023-12-04T04:39:41;28.47;;;16.60;;
553;SDS011;59;48.778;9.156;2023-12-04T04:42:07;26.77;;;16.90;;
553;SDS011;59;48.778;9.156;2023-12-04T04:44:32;28.03;;;16.00;;
553;SDS011;59;48.778;9.156;2023-12-04T04:46:58;26.97;;;15.50;;
553;SDS011;59;48.778;9.156;2023-12-04T04:49:24;29.13;;;16.35;;
553;SDS011;59;48.778;9.156;2023-12-04T04:51:50;26.00;;;16.27;;
553;SDS011;59;48.778;9.156;2023-12-04T04:54:15;28.90;;;16.67;;
553;SDS011;59;48.778;9.156;2023-12-04T04:56:41;30.10;;;16.77;;
553;SDS011;59;48.778;9.156;2023-12-04T04:59:07;27.63;;;15.10;;
553;SDS011;59;48.778;9.156;2023-12-04T05:01:32;25.87;;;15.23;;
553;SDS011;59;48.778;9.156;2023-12-04T05:03:58;25.77;;;14.73;;
553;SDS011;59;48.778;9.156;2023-12-04T05:06:23;28.50;;;15.03;;
553;SDS011;59;48.778;9.156;2023-12-04T05:08:49;28.53;;;15.57;;
553;SDS011;59;48.778;9.156;2023-12-04T05:11:17;28.73;;;14.90;;
553;SDS011;59;48.778;9.156;2023-12-04T05:13:44;31.87;;;16.57;;
553;SDS011;59;48.778;9.156;2023-12-04T05:16:10;27.30;;;15.30;;
553;SDS011;59;48.778;9.156;2023-12-04T05:18:35;30.93;;;16.20;;
553;SDS011;59;48.778;9.156;2023-12-04T05:21:01;33.67;;;18.20;;
553;SDS011;59;48.778;9.156;2023-12-04T05:23:27;26.58;;;15.35;;
553;SDS011;59;48.778;9.156;2023-12-04T05:25:53;33.73;;;16.93;;
553;SDS011;59;48.778;9.156;2023-12-04T05:28:19;30.20;;;15.00;;
553;SDS011;59;48.778;9.156;2023-12-04T05:30:44;26.07;;;14.53;;
553;SDS011;59;48.778;9.156;2023-12-04T05:33:10;23.80;;;14.00;;
553;SDS011;59;48.778;9.156;2023-12-04T05:35:36;27.67;;;15.60;;
553;SDS011;59;48.778;9.156;2023-12-04T05:38:02;26.25;;;14.30;;
553;SDS011;59;48.778;9.156;2023-12-04T05:40:28;25.10;;;14.93;;
553;SDS011;59;48.778;9.156;2023-12-04T05:42:53;25.13;;;13.57;;
553;SDS011;59;48.778;9.156;2023-12-04T05:45:19;24.47;;;13.50;;
553;SDS011;59;48.778;9.156;2023-12-04T05:47:45;23.37;;;13.40;;
553;SDS011;59;48.778;9.156;2023-12-04T05:50:11;30.63;;;16.60;;
553;SDS011;59;48.778;9.156;2023-12-04T05:52:36;34.20;;;15.60;;
553;SDS011;59;48.778;9.156;2023-12-04T05:55:02;29.70;;;14.90;;
553;SDS011;59;48.778;9.156;2023-12-04T05:57:28;27.90;;;14.40;;
553;SDS011;59;48.778;9.156;2023-12-04T05:59:54;24.10;;;13.67;;
553;SDS011;59;48.778;9.156;2023-12-04T06:02:20;25.40;;;14.30;;
553;SDS011;59;48.778;9.156;2023-12-04T06:04:46;25.40;;;14.50;;
553;SDS011;59;48.778;9.156;2023-12-04T06:07:12;25.77;;;14.03;;
553;SDS011;59;48.778;9.156;2023-12-04T06:09:37;24.83;;;13.80;;
553;SDS011;59;48.778;9.156;2023-12-04T06:12:03;22.20;;;12.73;;
553;SDS011;59;48.778;9.156;2023-12-04T06:14:33;24.40;;;13.30;;
553;SDS011;59;48.778;9.156;2023-12-04T06:17:00;20.80;;;12.57;;
553;SDS011;59;48.778;9.156;2023-12-04T06:19:25;25.47;;;14.73;;
553;SDS011;59;48.778;9.156;2023-12-04T06:21:52;22.13;;;12.87;;
553;SDS011;59;48.778;9.156;2023-12-04T06:24:18;24.97;;;14.47;;
553;SDS011;59;48.778;9.156;2023-12-04T06:26:44;27.88;;;15.48;;
553;SDS011;59;48.778;9.156;2023-12-04T06:29:15;28.42;;;16.08;;
553;SDS011;59;48.778;9.156;2023-12-04T06:31:41;21.60;;;13.83;;
553;SDS011;59;48.778;9.156;2023-12-04T06:34:07;24.42;;;14.73;;
553;SDS011;59;48.778;9.156;2023-12-04T06:36:35;26.03;;;13.53;;
553;SDS011;59;48.778;9.156;2023-12-04T06:39:04;23.23;;;11.90;;
553;SDS011;59;48.778;9.156;2023-12-04T06:41:34;24.87;;;13.93;;
553;SDS011;59;48.778;9.156;2023-12-04T06:44:01;24.27;;;13.47;;
553;SDS011;59;48.778;9.156;2023-12-04T06:46:28;22.23;;;13.33;;
553;SDS011;59;48.778;9.156;2023-12-04T06:49:15;24.35;;;14.45;;
553;SDS011;59;48.778;9.156;2023-12-04T06:52:00;26.13;;;14.80;;
553;SDS011;59;48.778;9.156;2023-12-04T06:54:38;24.40;;;12.57;;
553;SDS011;59;48.778;9.156;2023-12-04T06:57:04;30.03;;;15.47;;
553;SDS011;59;48.778;9.156;2023-12-04T06:59:31;27.13;;;14.70;;
553;SDS011;59;48.778;9.156;2023-12-04T07:01:57;25.20;;;13.80;;
553;SDS011;59;48.778;9.156;2023-12-04T07:04:36;27.87;;;15.30;;
553;SDS011;59;48.778;9.156;2023-12-04T07:07:02;29.70;;;16.30;;
553;SDS011;59;48.778;9.156;2023-12-04T07:09:33;27.30;;;15.57;;
553;SDS011;59;48.778;9.156;2023-12-04T07:12:07;26.97;;;14.97;;
553;SDS011;59;48.778;9.156;2023-12-04T07:14:35;24.60;;;14.38;;
553;SDS011;59;48.778;9.156;2023-12-04T07:17:01;27.97;;;16.37;;
553;SDS011;59;48.778;9.156;2023-12-04T07:19:27;26.70;;;14.90;;
553;SDS011;59;48.778;9.156;2023-12-04T07:21:52;27.17;;;13.50;;
553;SDS011;59;48.778;9.156;2023-12-04T07:24:18;25.57;;;15.60;;
553;SDS011;59;48.778;9.156;2023-12-04T07:26:44;24.63;;;12.57;;
553;SDS011;59;48.778;9.156;2023-12-04T07:29:09;25.20;;;14.17;;
553;SDS011;59;48.778;9.156;2023-12-04T07:31:36;22.33;;;13.17;;
553;SDS011;59;48.778;9.156;2023-12-04T07:34:03;22.17;;;13.47;;
553;SDS011;59;48.778;9.156;2023-12-04T07:36:28;24.03;;;13.37;;
553;SDS011;59;48.778;9.156;2023-12-04T07:38:54;25.60;;;14.30;;
553;SDS011;59;48.778;9.156;2023-12-04T07:41:20;23.97;;;13.13;;
553;SDS011;59;48.778;9.156;2023-12-04T07:43:46;25.37;;;13.73;;
553;SDS011;59;48.778;9.156;2023-12-04T07:46:12;25.70;;;14.00;;
553;SDS011;59;48.778;9.156;2023-12-04T07:48:39;24.90;;;13.50;;
553;SDS011;59;48.778;9.156;2023-12-04T07:51:05;23.55;;;13.43;;
553;SDS011;59;48.778;9.156;2023-12-04T07:53:31;27.37;;;14.23;;
553;SDS011;59;48.778;9.156;2023-12-04T07:55:57;28.43;;;15.50;;
553;SDS011;59;48.778;9.156;2023-12-04T07:58:23;25.57;;;13.93;;
553;SDS011;59;48.778;9.156;2023-12-04T08:00:48;25.80;;;15.10;;
553;SDS011;59;48.778;9.156;2023-12-04T08:03:15;28.30;;;14.87;;
553;SDS011;59;48.778;9.156;2023-12-04T08:05:40;27.63;;;14.50;;
553;SDS011;59;48.778;9.156;2023-12-04T08:08:06;25.67;;;14.73;;
553;SDS011;59;48.778;9.156;2023-12-04T08:10:32;32.30;;;15.83;;
553;SDS011;59;48.778;9.156;2023-12-04T08:12:57;27.37;;;14.83;;
553;SDS011;59;48.778;9.156;2023-12-04T08:15:23;27.80;;;15.33;;
553;SDS011;59;48.778;9.156;2023-12-04T08:17:49;28.50;;;15.43;;
553;SDS011;59;48.778;9.156;2023-12-04T08:20:15;35.00;;;16.53;;
553;SDS011;59;48.778;9.156;2023-12-04T08:22:41;30.47;;;15.80;;
553;SDS011;59;48.778;9.156;2023-12-04T08:25:08;27.30;;;16.77;;
553;SDS011;59;48.778;9.156;2023-12-04T08:27:34;27.30;;;16.02;;
553;SDS011;59;48.778;9.156;2023-12-04T08:30:00;30.70;;;15.80;;
553;SDS011;59;48.778;9.156;2023-12-04T08:32:36;26.20;;;15.37;;
553;SDS011;59;48.778;9.156;2023-12-04T08:35:02;29.10;;;16.07;;
553;SDS011;59;48.778;9.156;2023-12-04T08:37:28;27.00;;;15.47;;
553;SDS011;59;48.778;9.156;2023-12-04T08:39:55;29.10;;;16.65;;
553;SDS011;59;48.778;9.156;2023-12-04T08:42:21;26.53;;;15.33;;
553;SDS011;59;48.778;9.156;2023-12-04T08:44:46;25.17;;;14.03;;
553;SDS011;59;48.778;9.156;2023-12-04T08:47:12;23.40;;;13.67;;
553;SDS011;59;48.778;9.156;2023-12-04T08:49:39;23.90;;;13.70;;
553;SDS011;59;48.778;9.156;2023-12-04T08:52:06;26.02;;;15.95;;
553;SDS011;59;48.778;9.156;2023-12-04T08:54:32;23.50;;;14.95;;
553;SDS011;59;48.778;9.156;2023-12-04T08:56:58;25.13;;;13.00;;
553;SDS011;59;48.778;9.156;2023-12-04T08:59:23;22.57;;;13.03;;
553;SDS011;59;48.778;9.156;2023-12-04T09:01:49;27.93;;;13.60;;
553;SDS011;59;48.778;9.156;2023-12-04T09:04:15;22.70;;;14.00;;
553;SDS011;59;48.778;9.156;2023-12-04T09:06:41;28.10;;;16.52;;
553;SDS011;59;48.778;9.156;2023-12-04T09:09:07;25.03;;;14.10;;
553;SDS011;59;48.778;9.156;2023-12-04T09:11:33;24.80;;;13.80;;
553;SDS011;59;48.778;9.156;2023-12-04T09:13:58;25.13;;;13.97;;
553;SDS011;59;48.778;9.156;2023-12-04T09:16:24;23.73;;;13.73;;
553;SDS011;59;48.778;9.156;2023-12-04T09:18:50;22.23;;;12.67;;
553;SDS011;59;48.778;9.156;2023-12-04T09:21:15;22.80;;;13.50;;
553;SDS011;59;48.778;9.156;2023-12-04T09:23:41;22.93;;;13.67;;
553;SDS011;59;48.778;9.156;2023-12-04T09:26:07;23.83;;;13.53;;
553;SDS011;59;48.778;9.156;2023-12-04T09:28:33;25.10;;;13.40;;
553;SDS011;59;48.778;9.156;2023-12-04T09:31:00;22.50;;;12.30;;
553;SDS011;59;48.778;9.156;2023-12-04T09:33:26;23.60;;;13.20;;
553;SDS011;59;48.778;9.156;2023-12-04T09:35:51;24.87;;;13.43;;
553;SDS011;59;48.778;9.156;2023-12-04T09:38:17;21.57;;;12.77;;
553;SDS011;59;48.778;9.156;2023-12-04T09:40:44;21.17;;;12.03;;
553;SDS011;59;48.778;9.156;2023-12-04T09:43:10;21.30;;;12.40;;
553;SDS011;59;48.778;9.156;2023-12-04T09:45:36;19.83;;;12.23;;
553;SDS011;59;48.778;9.156;2023-12-04T09:48:03;24.13;;;12.30;;
553;SDS011;59;48.778;9.156;2023-12-04T09:50:30;23.70;;;13.63;;
553;SDS011;59;48.778;9.156;2023-12-04T09:52:56;20.53;;;11.80;;
553;SDS011;59;48.778;9.156;2023-12-04T09:55:26;21.00;;;12.43;;
553;SDS011;59;48.778;9.156;2023-12-04T09:57:52;20.63;;;12.43;;
553;SDS011;59;48.778;9.156;2023-12-04T10:00:18;21.70;;;12.50;;
553;SDS011;59;48.778;9.156;2023-12-04T10:02:44;24.73;;;11.70;;
553;SDS011;59;48.778;9.156;2023-12-04T10:05:10;19.60;;;12.10;;
553;SDS011;59;48.778;9.156;2023-12-04T10:07:36;22.43;;;12.87;;
553;SDS011;59;48.778;9.156;2023-12-04T10:10:03;20.10;;;11.70;;
553;SDS011;59;48.778;9.156;2023-12-04T10:12:33;19.37;;;11.13;;
553;SDS011;59;48.778;9.156;2023-12-04T10:15:08;21.93;;;11.67;;
553;SDS011;59;48.778;9.156;2023-12-04T10:17:36;21.70;;;11.97;;
553;SDS011;59;48.778;9.156;2023-12-04T10:20:06;20.97;;;12.20;;
553;SDS011;59;48.778;9.156;2023-12-04T10:22:37;23.40;;;12.00;;
553;SDS011;59;48.778;9.156;2023-12-04T10:25:16;22.30;;;12.57;;
553;SDS011;59;48.778;9.156;2023-12-04T10:27:43;21.47;;;12.50;;
553;SDS011;59;48.778;9.156;2023-12-04T10:30:09;22.00;;;12.50;;
553;SDS011;59;48.778;9.156;2023-12-04T10:32:40;21.40;;;12.00;;
553;SDS011;59;48.778;9.156;2023-12-04T10:35:06;22.73;;;11.77;;
553;SDS011;59;48.778;9.156;2023-12-04T10:37:38;22.43;;;11.37;;
553;SDS011;59;48.778;9.156;2023-12-04T10:40:04;22.43;;;12.03;;
553;SDS011;59;48.778;9.156;2023-12-04T10:42:34;22.60;;;11.73;;
553;SDS011;59;48.778;9.156;2023-12-04T10:45:00;22.60;;;12.00;;
553;SDS011;59;48.778;9.156;2023-12-04T10:47:29;22.77;;;11.93;;
553;SDS011;59;48.778;9.156;2023-12-04T10:49:58;24.27;;;11.83;;
553;SDS011;59;48.778;9.156;2023-12-04T10:52:23;23.40;;;11.73;;
553;SDS011;59;48.778;9.156;2023-12-04T10:54:49;22.50;;;12.17;;
553;SDS011;59;48.778;9.156;2023-12-04T10:57:16;25.00;;;13.40;;
553;SDS011;59;48.778;9.156;2023-12-04T10:59:47;86.60;;;39.77;;
553;SDS011;59;48.778;9.156;2023-12-04T11:02:16;34.20;;;17.47;;
553;SDS011;59;48.778;9.156;2023-12-04T11:04:45;30.00;;;12.47;;
553;SDS011;59;48.778;9.156;2023-12-04T11:07:14;36.00;;;13.27;;
553;SDS011;59;48.778;9.156;2023-12-04T11:09:40;33.57;;;11.77;;
553;SDS011;59;48.778;9.156;2023-12-04T11:12:08;22.30;;;11.60;;
553;SDS011;59;48.778;9.156;2023-12-04T11:14:39;21.53;;;11.80;;
553;SDS011;59;48.778;9.156;2023-12-04T11:17:08;21.30;;;12.27;;
553;SDS011;59;48.778;9.156;2023-12-04T11:22:23;21.67;;;11.30;;
553;SDS011;59;48.778;9.156;2023-12-04T11:24:50;19.20;;;10.90;;
553;SDS011;59;48.778;9.156;2023-12-04T11:27:16;19.77;;;10.80;;
553;SDS011;59;48.778;9.156;2023-12-04T11:29:47;21.40;;;11.30;;
553;SDS011;59;48.778;9.156;2023-12-04T11:32:16;20.97;;;11.37;;
553;SDS011;59;48.778;9.156;2023-12-04T11:35:17;22.53;;;12.43;;
553;SDS011;59;48.778;9.156;2023-12-04T11:37:39;21.33;;;12.33;;
553;SDS011;59;48.778;9.156;2023-12-04T11:40:05;21.03;;;11.23;;
553;SDS011;59;48.778;9.156;2023-12-04T11:42:32;22.03;;;12.33;;
553;SDS011;59;48.778;9.156;2023-12-04T11:44:58;23.50;;;12.20;;
553;SDS011;59;48.778;9.156;2023-12-04T11:47:24;20.60;;;11.27;;
553;SDS011;59;48.778;9.156;2023-12-04T11:49:50;20.00;;;11.20;;
553;SDS011;59;48.778;9.156;2023-12-04T11:52:15;21.23;;;11.13;;
553;SDS011;59;48.778;9.156;2023-12-04T11:54:57;24.73;;;12.93;;
553;SDS011;59;48.778;9.156;2023-12-04T11:57:25;18.17;;;10.50;;
553;SDS011;59;48.778;9.156;2023-12-04T12:00:39;22.10;;;11.43;;
553;SDS011;59;48.778;9.156;2023-12-04T12:05:21;21.63;;;12.40;;
553;SDS011;59;48.778;9.156;2023-12-04T12:07:47;28.63;;;13.87;;
553;SDS011;59;48.778;9.156;2023-12-04T12:10:14;27.80;;;14.67;;
553;SDS011;59;48.778;9.156;2023-12-04T12:12:41;27.80;;;14.77;;
553;SDS011;59;48.778;9.156;2023-12-04T12:15:11;29.07;;;14.40;;
553;SDS011;59;48.778;9.156;2023-12-04T12:17:37;27.93;;;14.87;;
553;SDS011;59;48.778;9.156;2023-12-04T12:20:07;28.70;;;14.70;;
553;SDS011;59;48.778;9.156;2023-12-04T12:22:34;28.50;;;16.60;;
553;SDS011;59;48.778;9.156;2023-12-04T12:25:03;29.63;;;16.13;;
553;SDS011;59;48.778;9.156;2023-12-04T12:27:30;24.83;;;14.77;;
553;SDS011;59;48.778;9.156;2023-12-04T12:29:56;31.27;;;17.23;;
553;SDS011;59;48.778;9.156;2023-12-04T12:32:25;27.70;;;14.80;;
553;SDS011;59;48.778;9.156;2023-12-04T12:34:51;31.50;;;16.23;;
553;SDS011;59;48.778;9.156;2023-12-04T12:37:18;30.80;;;16.57;;
553;SDS011;59;48.778;9.156;2023-12-04T12:39:43;29.30;;;15.60;;
553;SDS011;59;48.778;9.156;2023-12-04T12:42:09;30.30;;;16.90;;
553;SDS011;59;48.778;9.156;2023-12-04T12:44:39;31.20;;;16.57;;
553;SDS011;59;48.778;9.156;2023-12-04T12:47:08;33.90;;;16.90;;
553;SDS011;59;48.778;9.156;2023-12-04T12:49:34;40.33;;;18.27;;
553;SDS011;59;48.778;9.156;2023-12-04T12:52:02;36.83;;;17.87;;
553;SDS011;59;48.778;9.156;2023-12-04T12:57:34;29.50;;;16.50;;
553;SDS011;59;48.778;9.156;2023-12-04T13:00:00;31.87;;;17.40;;
553;SDS011;59;48.778;9.156;2023-12-04T13:02:26;34.07;;;17.57;;
553;SDS011;59;48.778;9.156;2023-12-04T13:04:52;31.40;;;16.83;;
553;SDS011;59;48.778;9.156;2023-12-04T13:07:17;30.73;;;17.57;;
553;SDS011;59;48.778;9.156;2023-12-04T13:09:44;34.07;;;18.63;;
553;SDS011;59;48.778;9.156;2023-12-04T13:12:10;33.07;;;17.83;;
553;SDS011;59;48.778;9.156;2023-12-04T13:14:35;35.60;;;17.87;;
553;SDS011;59;48.778;9.156;2023-12-04T13:17:02;36.20;;;18.10;;
553;SDS011;59;48.778;9.156;2023-12-04T13:19:28;36.60;;;18.10;;
553;SDS011;59;48.778;9.156;2023-12-04T13:21:54;35.27;;;17.10;;
553;SDS011;59;48.778;9.156;2023-12-04T13:24:19;31.90;;;16.10;;
553;SDS011;59;48.778;9.156;2023-12-04T13:26:45;26.17;;;15.20;;
553;SDS011;59;48.778;9.156;2023-12-04T13:29:11;24.07;;;14.63;;
553;SDS011;59;48.778;9.156;2023-12-04T13:31:40;26.03;;;15.10;;
553;SDS011;59;48.778;9.156;2023-12-04T13:34:05;28.90;;;15.57;;
553;SDS011;59;48.778;9.156;2023-12-04T13:36:32;29.10;;;16.93;;
553;SDS011;59;48.778;9.156;2023-12-04T13:38:59;30.90;;;16.80;;
553;SDS011;59;48.778;9.156;2023-12-04T13:41:24;36.27;;;18.20;;
553;SDS011;59;48.778;9.156;2023-12-04T13:44:28;44.20;;;25.33;;
553;SDS011;59;48.778;9.156;2023-12-04T13:46:54;31.43;;;17.70;;
553;SDS011;59;48.778;9.156;2023-12-04T13:49:20;32.33;;;17.00;;
553;SDS011;59;48.778;9.156;2023-12-04T13:51:46;33.20;;;17.40;;
553;SDS011;59;48.778;9.156;2023-12-04T13:54:14;29.93;;;17.90;;
553;SDS011;59;48.778;9.156;2023-12-04T13:56:48;30.63;;;17.27;;
553;SDS011;59;48.778;9.156;2023-12-04T13:59:19;34.67;;;17.67;;
553;SDS011;59;48.778;9.156;2023-12-04T14:01:45;30.87;;;17.80;;
553;SDS011;59;48.778;9.156;2023-12-04T14:04:12;35.93;;;18.70;;
553;SDS011;59;48.778;9.156;2023-12-04T14:06:38;31.50;;;18.57;;
553;SDS011;59;48.778;9.156;2023-12-04T14:09:03;34.50;;;18.50;;
553;SDS011;59;48.778;9.156;2023-12-04T14:11:39;34.77;;;19.23;;
553;SDS011;59;48.778;9.156;2023-12-04T14:14:09;30.50;;;17.17;;
553;SDS011;59;48.778;9.156;2023-12-04T14:16:34;31.00;;;17.27;;
553;SDS011;59;48.778;9.156;2023-12-04T14:19:00;33.23;;;19.17;;
553;SDS011;59;48.778;9.156;2023-12-04T14:21:26;32.53;;;18.80;;
553;SDS011;59;48.778;9.156;2023-12-04T14:23:52;32.17;;;17.40;;
553;SDS011;59;48.778;9.156;2023-12-04T14:26:18;26.40;;;16.10;;
553;SDS011;59;48.778;9.156;2023-12-04T14:28:43;31.20;;;18.73;;
553;SDS011;59;48.778;9.156;2023-12-04T14:31:09;30.80;;;19.03;;
553;SDS011;59;48.778;9.156;2023-12-04T14:33:36;33.10;;;18.00;;
553;SDS011;59;48.778;9.156;2023-12-04T14:36:02;34.70;;;18.80;;
553;SDS011;59;48.778;9.156;2023-12-04T14:38:28;32.10;;;18.53;;
553;SDS011;59;48.778;9.156;2023-12-04T14:40:54;35.30;;;18.37;;
553;SDS011;59;48.778;9.156;2023-12-04T14:43:20;32.67;;;19.53;;
553;SDS011;59;48.778;9.156;2023-12-04T14:45:46;33.47;;;18.60;;
553;SDS011;59;48.778;9.156;2023-12-04T14:48:11;31.50;;;17.43;;
553;SDS011;59;48.778;9.156;2023-12-04T14:50:37;33.10;;;18.53;;
553;SDS011;59;48.778;9.156;2023-12-04T14:53:04;32.53;;;17.80;;
553;SDS011;59;48.778;9.156;2023-12-04T14:55:54;31.97;;;19.10;;
553;SDS011;59;48.778;9.156;2023-12-04T14:58:38;34.30;;;20.33;;
553;SDS011;59;48.778;9.156;2023-12-04T15:01:10;37.80;;;20.43;;
553;SDS011;59;48.778;9.156;2023-12-04T15:03:53;38.20;;;19.33;;
553;SDS011;59;48.778;9.156;2023-12-04T15:06:19;32.60;;;18.13;;
553;SDS011;59;48.778;9.156;2023-12-04T15:08:56;34.87;;;19.37;;
553;SDS011;59;48.778;9.156;2023-12-04T15:11:34;33.33;;;17.50;;
553;SDS011;59;48.778;9.156;2023-12-04T15:14:19;32.13;;;18.17;;
553;SDS011;59;48.778;9.156;2023-12-04T15:16:45;34.00;;;17.43;;
553;SDS011;59;48.778;9.156;2023-12-04T15:19:19;38.60;;;20.00;;
553;SDS011;59;48.778;9.156;2023-12-04T15:22:00;35.50;;;20.27;;
553;SDS011;59;48.778;9.156;2023-12-04T15:24:26;36.07;;;20.23;;
553;SDS011;59;48.778;9.156;2023-12-04T15:26:52;39.80;;;20.80;;
553;SDS011;59;48.778;9.156;2023-12-04T15:29:18;33.60;;;19.60;;
553;SDS011;59;48.778;9.156;2023-12-04T15:31:46;34.63;;;20.00;;
553;SDS011;59;48.778;9.156;2023-12-04T15:34:12;36.77;;;19.83;;
553;SDS011;59;48.778;9.156;2023-12-04T15:36:38;36.23;;;19.70;;
553;SDS011;59;48.778;9.156;2023-12-04T15:39:25;36.03;;;19.23;;